sensor_id;sensor_type;location;lat;lon;timestamp;temperature;humidity
34135;DHT22;20410;55.578;12.968;2022-09-09T00:03:49;14.00;99.90
34135;DHT22;20410;55.578;12.968;2022-09-09T00:06:24;14.00;99.90
34135;DHT22;20410;55.578;12.968;2022-09-09T00:09:07;13.90;99.90
34135;DHT22;20410;55.578;12.968;2022-09-09T00:12:04;13.90;99.90
34135;DHT22;20410;55.578;12.968;2022-09-09T00:14:56;13.90;99.90
34135;DHT22;20410;55.578;12.968;2022-09-09T00:20:16;13.90;99.90
34135;DHT22;20410;55.578;12.968;2022-09-09T00:22:55;13.90;99.90
34135;DHT22;20410;55.578;12.968;2022-09-09T00:27:59;14.00;99.90
34135;DHT22;20410;55.578;12.968;2022-09-09T00:30:28;13.90;99.90
34135;DHT22;20410;55.578;12.968;2022-09-09T00:33:02;13.90;99.90
34135;DHT22;20410;55.578;12.968;2022-09-09T00:35:42;13.90;99.90
34135;DHT22;20410;55.578;12.968;2022-09-09T00:38:19;14.00;99.90
34135;DHT22;20410;55.578;12.968;2022-09-09T00:41:11;14.00;99.90
34135;DHT22;20410;55.578;12.968;2022-09-09T00:43:40;14.00;99.90
34135;DHT22;20410;55.578;12.968;2022-09-09T00:49:24;14.10;99.90
34135;DHT22;20410;55.578;12.968;2022-09-09T00:54:52;14.10;99.90
34135;DHT22;20410;55.578;12.968;2022-09-09T00:57:32;14.10;99.90
34135;DHT22;20410;55.578;12.968;2022-09-09T01:00:17;14.10;99.90
34135;DHT22;20410;55.578;12.968;2022-09-09T01:05:36;14.20;99.90
34135;DHT22;20410;55.578;12.968;2022-09-09T01:10:53;14.20;99.90
34135;DHT22;20410;55.578;12.968;2022-09-09T01:13:29;14.20;99.90
34135;DHT22;20410;55.578;12.968;2022-09-09T01:15:58;14.20;99.90
34135;DHT22;20410;55.578;12.968;2022-09-09T01:18:28;14.30;99.90
34135;DHT22;20410;55.578;12.968;2022-09-09T01:23:43;14.30;99.90
34135;DHT22;20410;55.578;12.968;2022-09-09T01:26:30;14.30;99.90
34135;DHT22;20410;55.578;12.968;2022-09-09T01:28:57;14.20;99.90
34135;DHT22;20410;55.578;12.968;2022-09-09T01:31:30;14.20;99.90
34135;DHT22;20410;55.578;12.968;2022-09-09T01:33:57;14.20;99.90
34135;DHT22;20410;55.578;12.968;2022-09-09T01:39:19;14.20;99.90
34135;DHT22;20410;55.578;12.968;2022-09-09T01:41:45;14.20;99.90
34135;DHT22;20410;55.578;12.968;2022-09-09T01:44:11;14.20;99.90
34135;DHT22;20410;55.578;12.968;2022-09-09T01:46:37;14.20;99.90
34135;DHT22;20410;55.578;12.968;2022-09-09T01:49:05;14.20;99.90
34135;DHT22;20410;55.578;12.968;2022-09-09T01:51:32;14.20;99.90
34135;DHT22;20410;55.578;12.968;2022-09-09T01:53:58;14.20;99.90
34135;DHT22;20410;55.578;12.968;2022-09-09T02:02:10;14.20;99.90
34135;DHT22;20410;55.578;12.968;2022-09-09T02:04:40;14.20;99.90
34135;DHT22;20410;55.578;12.968;2022-09-09T02:07:40;14.20;99.90
34135;DHT22;20410;55.578;12.968;2022-09-09T02:10:16;14.20;99.90
34135;DHT22;20410;55.578;12.968;2022-09-09T02:12:48;14.20;99.90
34135;DHT22;20410;55.578;12.968;2022-09-09T02:16:08;14.20;99.90
34135;DHT22;20410;55.578;12.968;2022-09-09T02:18:20;14.20;99.90
34135;DHT22;20410;55.578;12.968;2022-09-09T02:20:48;14.10;99.90
34135;DHT22;20410;55.578;12.968;2022-09-09T02:23:15;14.00;99.90
34135;DHT22;20410;55.578;12.968;2022-09-09T02:25:41;14.10;99.90
34135;DHT22;20410;55.578;12.968;2022-09-09T02:28:10;14.10;99.90
34135;DHT22;20410;55.578;12.968;2022-09-09T02:30:38;14.00;99.90
34135;DHT22;20410;55.578;12.968;2022-09-09T02:33:07;14.00;99.90
34135;DHT22;20410;55.578;12.968;2022-09-09T02:35:36;14.00;99.90
34135;DHT22;20410;55.578;12.968;2022-09-09T02:38:06;14.00;99.90
34135;DHT22;20410;55.578;12.968;2022-09-09T02:40:33;14.00;99.90
34135;DHT22;20410;55.578;12.968;2022-09-09T02:42:59;14.00;99.90
34135;DHT22;20410;55.578;12.968;2022-09-09T02:45:36;14.00;99.90
34135;DHT22;20410;55.578;12.968;2022-09-09T02:54:20;13.90;99.90
34135;DHT22;20410;55.578;12.968;2022-09-09T02:56:52;13.90;99.90
34135;DHT22;20410;55.578;12.968;2022-09-09T02:59:22;13.90;99.90
34135;DHT22;20410;55.578;12.968;2022-09-09T03:01:49;13.90;99.90
34135;DHT22;20410;55.578;12.968;2022-09-09T03:04:15;13.90;99.90
34135;DHT22;20410;55.578;12.968;2022-09-09T03:06:40;13.90;99.90
34135;DHT22;20410;55.578;12.968;2022-09-09T03:09:06;13.90;99.90
34135;DHT22;20410;55.578;12.968;2022-09-09T03:11:33;13.90;99.90
34135;DHT22;20410;55.578;12.968;2022-09-09T03:13:58;13.90;99.90
34135;DHT22;20410;55.578;12.968;2022-09-09T03:16:24;13.90;99.90
34135;DHT22;20410;55.578;12.968;2022-09-09T03:18:50;13.90;99.90
34135;DHT22;20410;55.578;12.968;2022-09-09T03:21:15;13.90;99.90
34135;DHT22;20410;55.578;12.968;2022-09-09T03:23:41;13.90;99.90
34135;DHT22;20410;55.578;12.968;2022-09-09T03:26:07;13.90;99.90
34135;DHT22;20410;55.578;12.968;2022-09-09T03:28:33;13.90;99.90
34135;DHT22;20410;55.578;12.968;2022-09-09T03:31:04;13.90;99.90
34135;DHT22;20410;55.578;12.968;2022-09-09T03:33:30;13.90;99.90
34135;DHT22;20410;55.578;12.968;2022-09-09T03:35:57;14.00;99.90
34135;DHT22;20410;55.578;12.968;2022-09-09T03:38:26;14.00;99.90
34135;DHT22;20410;55.578;12.968;2022-09-09T03:40:53;14.00;99.90
34135;DHT22;20410;55.578;12.968;2022-09-09T03:43:21;14.00;99.90
34135;DHT22;20410;55.578;12.968;2022-09-09T03:45:47;14.00;99.90
34135;DHT22;20410;55.578;12.968;2022-09-09T03:48:14;14.00;99.90
34135;DHT22;20410;55.578;12.968;2022-09-09T03:50:45;14.00;99.90
34135;DHT22;20410;55.578;12.968;2022-09-09T03:53:10;14.10;99.90
34135;DHT22;20410;55.578;12.968;2022-09-09T03:55:36;14.10;99.90
34135;DHT22;20410;55.578;12.968;2022-09-09T03:58:01;14.20;99.90
34135;DHT22;20410;55.578;12.968;2022-09-09T04:00:27;14.10;99.90
34135;DHT22;20410;55.578;12.968;2022-09-09T04:02:54;14.10;99.90
34135;DHT22;20410;55.578;12.968;2022-09-09T04:05:22;14.20;99.90
34135;DHT22;20410;55.578;12.968;2022-09-09T04:07:47;14.30;99.90
34135;DHT22;20410;55.578;12.968;2022-09-09T04:10:13;14.30;99.90
34135;DHT22;20410;55.578;12.968;2022-09-09T04:12:39;14.20;99.90
34135;DHT22;20410;55.578;12.968;2022-09-09T04:15:05;14.30;99.90
34135;DHT22;20410;55.578;12.968;2022-09-09T04:17:30;14.30;99.90
34135;DHT22;20410;55.578;12.968;2022-09-09T04:19:56;14.30;99.90
34135;DHT22;20410;55.578;12.968;2022-09-09T04:22:22;14.40;99.90
34135;DHT22;20410;55.578;12.968;2022-09-09T04:24:48;14.40;99.90
34135;DHT22;20410;55.578;12.968;2022-09-09T04:27:13;14.40;99.90
34135;DHT22;20410;55.578;12.968;2022-09-09T04:29:39;14.40;99.90
34135;DHT22;20410;55.578;12.968;2022-09-09T04:32:04;14.40;99.90
34135;DHT22;20410;55.578;12.968;2022-09-09T04:34:30;14.50;99.90
34135;DHT22;20410;55.578;12.968;2022-09-09T04:36:56;14.50;99.90
34135;DHT22;20410;55.578;12.968;2022-09-09T04:39:22;14.40;99.90
34135;DHT22;20410;55.578;12.968;2022-09-09T04:41:48;14.40;99.90
34135;DHT22;20410;55.578;12.968;2022-09-09T04:44:14;14.40;99.90
34135;DHT22;20410;55.578;12.968;2022-09-09T04:46:39;14.50;99.90
34135;DHT22;20410;55.578;12.968;2022-09-09T04:49:06;14.50;99.90
34135;DHT22;20410;55.578;12.968;2022-09-09T04:51:32;14.50;99.90
34135;DHT22;20410;55.578;12.968;2022-09-09T04:53:58;14.50;99.90
34135;DHT22;20410;55.578;12.968;2022-09-09T04:56:23;14.50;99.90
34135;DHT22;20410;55.578;12.968;2022-09-09T04:58:52;14.40;99.90
34135;DHT22;20410;55.578;12.968;2022-09-09T05:01:20;14.50;99.90
34135;DHT22;20410;55.578;12.968;2022-09-09T05:03:47;14.50;99.90
34135;DHT22;20410;55.578;12.968;2022-09-09T05:06:17;14.50;99.90
34135;DHT22;20410;55.578;12.968;2022-09-09T05:08:43;14.50;99.90
34135;DHT22;20410;55.578;12.968;2022-09-09T05:11:20;14.50;99.90
34135;DHT22;20410;55.578;12.968;2022-09-09T05:13:48;14.50;99.90
34135;DHT22;20410;55.578;12.968;2022-09-09T05:16:15;14.50;99.90
34135;DHT22;20410;55.578;12.968;2022-09-09T05:18:42;14.50;99.90
34135;DHT22;20410;55.578;12.968;2022-09-09T05:21:12;14.50;99.90
34135;DHT22;20410;55.578;12.968;2022-09-09T05:23:38;14.40;99.90
34135;DHT22;20410;55.578;12.968;2022-09-09T05:26:04;14.50;99.90
34135;DHT22;20410;55.578;12.968;2022-09-09T05:28:31;14.50;99.90
34135;DHT22;20410;55.578;12.968;2022-09-09T05:30:59;14.50;99.90
34135;DHT22;20410;55.578;12.968;2022-09-09T05:33:26;14.60;99.90
34135;DHT22;20410;55.578;12.968;2022-09-09T05:36:07;14.60;99.90
34135;DHT22;20410;55.578;12.968;2022-09-09T05:38:33;14.50;99.90
34135;DHT22;20410;55.578;12.968;2022-09-09T05:41:00;14.60;99.90
34135;DHT22;20410;55.578;12.968;2022-09-09T05:43:27;14.60;99.90
34135;DHT22;20410;55.578;12.968;2022-09-09T05:46:04;14.60;99.90
34135;DHT22;20410;55.578;12.968;2022-09-09T05:48:31;14.70;99.90
34135;DHT22;20410;55.578;12.968;2022-09-09T05:50:58;14.70;99.90
34135;DHT22;20410;55.578;12.968;2022-09-09T05:53:25;14.70;99.90
34135;DHT22;20410;55.578;12.968;2022-09-09T05:55:59;14.70;99.90
34135;DHT22;20410;55.578;12.968;2022-09-09T05:58:25;14.70;99.90
34135;DHT22;20410;55.578;12.968;2022-09-09T06:00:50;14.70;99.90
34135;DHT22;20410;55.578;12.968;2022-09-09T06:03:16;14.70;99.90
34135;DHT22;20410;55.578;12.968;2022-09-09T06:05:42;14.80;99.90
34135;DHT22;20410;55.578;12.968;2022-09-09T06:08:08;14.80;99.90
34135;DHT22;20410;55.578;12.968;2022-09-09T06:10:33;14.80;99.90
34135;DHT22;20410;55.578;12.968;2022-09-09T06:12:59;14.70;99.90
34135;DHT22;20410;55.578;12.968;2022-09-09T06:15:25;14.80;99.90
34135;DHT22;20410;55.578;12.968;2022-09-09T06:17:55;14.70;99.90
34135;DHT22;20410;55.578;12.968;2022-09-09T06:20:21;14.60;99.90
34135;DHT22;20410;55.578;12.968;2022-09-09T06:22:47;14.60;99.90
34135;DHT22;20410;55.578;12.968;2022-09-09T06:25:14;14.60;99.90
34135;DHT22;20410;55.578;12.968;2022-09-09T06:27:39;14.70;99.90
34135;DHT22;20410;55.578;12.968;2022-09-09T06:30:06;14.70;99.90
34135;DHT22;20410;55.578;12.968;2022-09-09T06:32:33;14.70;99.90
34135;DHT22;20410;55.578;12.968;2022-09-09T06:35:00;14.70;99.90
34135;DHT22;20410;55.578;12.968;2022-09-09T06:37:26;14.70;99.90
34135;DHT22;20410;55.578;12.968;2022-09-09T06:39:52;14.70;99.90
34135;DHT22;20410;55.578;12.968;2022-09-09T06:42:20;14.80;99.90
34135;DHT22;20410;55.578;12.968;2022-09-09T06:44:45;14.80;99.90
34135;DHT22;20410;55.578;12.968;2022-09-09T06:47:11;14.80;99.90
34135;DHT22;20410;55.578;12.968;2022-09-09T06:49:36;14.80;99.90
34135;DHT22;20410;55.578;12.968;2022-09-09T06:52:02;14.80;99.90
34135;DHT22;20410;55.578;12.968;2022-09-09T06:54:27;14.90;99.90
34135;DHT22;20410;55.578;12.968;2022-09-09T06:56:53;14.90;99.90
34135;DHT22;20410;55.578;12.968;2022-09-09T06:59:19;15.00;99.90
34135;DHT22;20410;55.578;12.968;2022-09-09T07:01:45;15.10;99.90
34135;DHT22;20410;55.578;12.968;2022-09-09T07:04:12;15.00;99.90
34135;DHT22;20410;55.578;12.968;2022-09-09T07:06:42;15.10;99.90
34135;DHT22;20410;55.578;12.968;2022-09-09T07:09:13;15.10;99.90
34135;DHT22;20410;55.578;12.968;2022-09-09T07:11:44;15.20;99.90
34135;DHT22;20410;55.578;12.968;2022-09-09T07:14:10;15.20;99.90
34135;DHT22;20410;55.578;12.968;2022-09-09T07:16:43;15.30;99.90
34135;DHT22;20410;55.578;12.968;2022-09-09T07:19:10;15.40;99.90
34135;DHT22;20410;55.578;12.968;2022-09-09T07:21:36;15.50;99.90
34135;DHT22;20410;55.578;12.968;2022-09-09T07:24:02;15.60;99.90
34135;DHT22;20410;55.578;12.968;2022-09-09T07:26:30;15.80;99.90
34135;DHT22;20410;55.578;12.968;2022-09-09T07:28:56;15.90;99.90
34135;DHT22;20410;55.578;12.968;2022-09-09T07:31:25;16.00;99.90
34135;DHT22;20410;55.578;12.968;2022-09-09T07:33:51;16.10;99.90
34135;DHT22;20410;55.578;12.968;2022-09-09T07:36:58;16.20;99.90
34135;DHT22;20410;55.578;12.968;2022-09-09T07:39:16;16.20;99.90
34135;DHT22;20410;55.578;12.968;2022-09-09T07:41:45;16.20;99.90
34135;DHT22;20410;55.578;12.968;2022-09-09T07:44:17;16.30;99.90
34135;DHT22;20410;55.578;12.968;2022-09-09T07:46:43;16.30;99.90
34135;DHT22;20410;55.578;12.968;2022-09-09T07:49:10;16.40;99.90
34135;DHT22;20410;55.578;12.968;2022-09-09T07:51:39;16.40;99.90
34135;DHT22;20410;55.578;12.968;2022-09-09T07:54:12;16.40;99.90
34135;DHT22;20410;55.578;12.968;2022-09-09T07:56:39;16.50;99.90
34135;DHT22;20410;55.578;12.968;2022-09-09T07:59:04;16.50;99.90
34135;DHT22;20410;55.578;12.968;2022-09-09T08:01:37;16.50;99.90
34135;DHT22;20410;55.578;12.968;2022-09-09T08:04:06;16.50;99.90
34135;DHT22;20410;55.578;12.968;2022-09-09T08:06:36;16.50;99.90
34135;DHT22;20410;55.578;12.968;2022-09-09T08:09:03;16.50;99.90
34135;DHT22;20410;55.578;12.968;2022-09-09T08:11:29;16.60;99.90
34135;DHT22;20410;55.578;12.968;2022-09-09T08:13:56;16.60;99.90
34135;DHT22;20410;55.578;12.968;2022-09-09T08:16:27;16.70;99.90
34135;DHT22;20410;55.578;12.968;2022-09-09T08:18:54;16.70;99.90
34135;DHT22;20410;55.578;12.968;2022-09-09T08:21:22;16.70;99.90
34135;DHT22;20410;55.578;12.968;2022-09-09T08:23:51;16.80;99.90
34135;DHT22;20410;55.578;12.968;2022-09-09T08:26:22;16.80;99.90
34135;DHT22;20410;55.578;12.968;2022-09-09T08:28:50;16.90;99.90
34135;DHT22;20410;55.578;12.968;2022-09-09T08:31:22;17.10;99.90
34135;DHT22;20410;55.578;12.968;2022-09-09T08:33:48;17.40;99.90
34135;DHT22;20410;55.578;12.968;2022-09-09T08:36:19;17.60;99.90
34135;DHT22;20410;55.578;12.968;2022-09-09T08:38:53;17.90;99.90
34135;DHT22;20410;55.578;12.968;2022-09-09T08:51:56;18.90;99.90
34135;DHT22;20410;55.578;12.968;2022-09-09T08:54:23;19.10;99.90
34135;DHT22;20410;55.578;12.968;2022-09-09T08:56:49;19.20;99.90
34135;DHT22;20410;55.578;12.968;2022-09-09T08:59:17;19.40;99.90
34135;DHT22;20410;55.578;12.968;2022-09-09T09:04:38;19.50;99.90
34135;DHT22;20410;55.578;12.968;2022-09-09T09:07:38;19.60;99.90
34135;DHT22;20410;55.578;12.968;2022-09-09T09:12:46;19.70;99.90
34135;DHT22;20410;55.578;12.968;2022-09-09T09:15:27;19.80;99.90
34135;DHT22;20410;55.578;12.968;2022-09-09T09:17:55;20.00;99.90
34135;DHT22;20410;55.578;12.968;2022-09-09T09:23:04;20.20;99.90
34135;DHT22;20410;55.578;12.968;2022-09-09T09:25:37;20.30;99.90
34135;DHT22;20410;55.578;12.968;2022-09-09T09:30:47;20.30;99.90
34135;DHT22;20410;55.578;12.968;2022-09-09T09:35:42;20.20;99.90
34135;DHT22;20410;55.578;12.968;2022-09-09T09:38:20;20.20;99.90
34135;DHT22;20410;55.578;12.968;2022-09-09T09:40:53;20.20;99.90
34135;DHT22;20410;55.578;12.968;2022-09-09T09:43:28;20.20;99.90
34135;DHT22;20410;55.578;12.968;2022-09-09T09:45:54;20.30;99.90
34135;DHT22;20410;55.578;12.968;2022-09-09T09:48:20;20.40;99.90
34135;DHT22;20410;55.578;12.968;2022-09-09T09:53:24;20.60;99.90
34135;DHT22;20410;55.578;12.968;2022-09-09T09:56:01;20.70;99.90
34135;DHT22;20410;55.578;12.968;2022-09-09T09:58:31;20.70;99.90
34135;DHT22;20410;55.578;12.968;2022-09-09T10:00:59;20.70;99.90
34135;DHT22;20410;55.578;12.968;2022-09-09T10:03:32;20.70;99.90
34135;DHT22;20410;55.578;12.968;2022-09-09T10:05:58;20.70;99.90
34135;DHT22;20410;55.578;12.968;2022-09-09T10:08:25;20.70;99.90
34135;DHT22;20410;55.578;12.968;2022-09-09T10:13:59;20.60;99.90
34135;DHT22;20410;55.578;12.968;2022-09-09T10:19:32;20.70;99.90
34135;DHT22;20410;55.578;12.968;2022-09-09T10:33:44;20.70;99.90
34135;DHT22;20410;55.578;12.968;2022-09-09T10:36:20;20.70;99.90
34135;DHT22;20410;55.578;12.968;2022-09-09T10:38:57;20.60;99.90
34135;DHT22;20410;55.578;12.968;2022-09-09T10:44:18;20.60;99.90
34135;DHT22;20410;55.578;12.968;2022-09-09T10:49:48;20.60;99.90
34135;DHT22;20410;55.578;12.968;2022-09-09T10:55:07;20.70;99.90
34135;DHT22;20410;55.578;12.968;2022-09-09T10:57:48;20.80;99.90
34135;DHT22;20410;55.578;12.968;2022-09-09T11:00:51;20.90;99.90
34135;DHT22;20410;55.578;12.968;2022-09-09T11:03:21;21.10;99.90
34135;DHT22;20410;55.578;12.968;2022-09-09T11:05:57;21.20;99.90
34135;DHT22;20410;55.578;12.968;2022-09-09T11:08:29;21.30;99.90
34135;DHT22;20410;55.578;12.968;2022-09-09T11:11:01;21.20;99.90
34135;DHT22;20410;55.578;12.968;2022-09-09T11:16:09;21.30;99.90
34135;DHT22;20410;55.578;12.968;2022-09-09T11:18:39;21.30;99.90
34135;DHT22;20410;55.578;12.968;2022-09-09T11:21:14;21.30;99.90
34135;DHT22;20410;55.578;12.968;2022-09-09T11:23:48;21.20;99.90
34135;DHT22;20410;55.578;12.968;2022-09-09T11:26:21;21.10;99.90
34135;DHT22;20410;55.578;12.968;2022-09-09T11:40:24;20.90;99.90
34135;DHT22;20410;55.578;12.968;2022-09-09T11:43:14;21.00;99.90
34135;DHT22;20410;55.578;12.968;2022-09-09T11:45:41;21.00;99.90
34135;DHT22;20410;55.578;12.968;2022-09-09T11:48:28;21.00;99.90
34135;DHT22;20410;55.578;12.968;2022-09-09T11:56:33;21.20;99.90
34135;DHT22;20410;55.578;12.968;2022-09-09T11:59:00;21.10;99.90
34135;DHT22;20410;55.578;12.968;2022-09-09T12:01:37;21.20;99.90
34135;DHT22;20410;55.578;12.968;2022-09-09T12:04:14;21.10;99.90
34135;DHT22;20410;55.578;12.968;2022-09-09T12:12:53;21.20;99.90
34135;DHT22;20410;55.578;12.968;2022-09-09T12:15:16;21.20;99.90
34135;DHT22;20410;55.578;12.968;2022-09-09T12:17:44;21.10;99.90
34135;DHT22;20410;55.578;12.968;2022-09-09T12:20:17;21.20;99.90
34135;DHT22;20410;55.578;12.968;2022-09-09T12:22:47;21.40;99.90
34135;DHT22;20410;55.578;12.968;2022-09-09T12:28:11;21.50;99.90
34135;DHT22;20410;55.578;12.968;2022-09-09T12:31:04;21.60;99.90
34135;DHT22;20410;55.578;12.968;2022-09-09T12:33:39;21.80;99.90
34135;DHT22;20410;55.578;12.968;2022-09-09T12:36:30;21.90;99.90
34135;DHT22;20410;55.578;12.968;2022-09-09T12:38:59;22.00;99.90
34135;DHT22;20410;55.578;12.968;2022-09-09T12:41:35;22.10;99.90
34135;DHT22;20410;55.578;12.968;2022-09-09T12:44:09;22.10;99.90
34135;DHT22;20410;55.578;12.968;2022-09-09T12:46:39;22.20;99.90
34135;DHT22;20410;55.578;12.968;2022-09-09T12:49:28;22.20;99.90
34135;DHT22;20410;55.578;12.968;2022-09-09T12:51:56;22.30;99.90
34135;DHT22;20410;55.578;12.968;2022-09-09T12:54:23;22.40;99.90
34135;DHT22;20410;55.578;12.968;2022-09-09T12:56:49;22.40;99.90
34135;DHT22;20410;55.578;12.968;2022-09-09T12:59:26;22.20;99.90
34135;DHT22;20410;55.578;12.968;2022-09-09T13:01:58;22.10;99.90
34135;DHT22;20410;55.578;12.968;2022-09-09T13:04:24;21.90;99.90
34135;DHT22;20410;55.578;12.968;2022-09-09T13:06:50;21.70;99.90
34135;DHT22;20410;55.578;12.968;2022-09-09T13:09:17;21.50;99.90
34135;DHT22;20410;55.578;12.968;2022-09-09T13:11:50;21.40;99.90
34135;DHT22;20410;55.578;12.968;2022-09-09T13:14:32;21.50;99.90
34135;DHT22;20410;55.578;12.968;2022-09-09T13:17:01;21.50;99.90
34135;DHT22;20410;55.578;12.968;2022-09-09T13:19:38;21.50;99.90
34135;DHT22;20410;55.578;12.968;2022-09-09T13:22:37;21.60;99.90
34135;DHT22;20410;55.578;12.968;2022-09-09T13:27:38;21.70;99.90
34135;DHT22;20410;55.578;12.968;2022-09-09T13:30:22;21.80;99.90
34135;DHT22;20410;55.578;12.968;2022-09-09T13:33:00;21.80;99.90
34135;DHT22;20410;55.578;12.968;2022-09-09T13:35:26;21.80;99.90
34135;DHT22;20410;55.578;12.968;2022-09-09T13:37:52;21.70;99.90
34135;DHT22;20410;55.578;12.968;2022-09-09T13:40:21;21.60;99.90
34135;DHT22;20410;55.578;12.968;2022-09-09T13:42:50;21.60;99.90
34135;DHT22;20410;55.578;12.968;2022-09-09T13:45:21;21.60;99.90
34135;DHT22;20410;55.578;12.968;2022-09-09T13:47:48;21.60;99.90
34135;DHT22;20410;55.578;12.968;2022-09-09T13:50:21;21.70;99.90
34135;DHT22;20410;55.578;12.968;2022-09-09T13:52:52;21.80;99.90
34135;DHT22;20410;55.578;12.968;2022-09-09T13:55:19;21.90;99.90
34135;DHT22;20410;55.578;12.968;2022-09-09T13:57:57;22.10;99.90
34135;DHT22;20410;55.578;12.968;2022-09-09T14:00:23;22.10;99.90
34135;DHT22;20410;55.578;12.968;2022-09-09T14:02:52;22.20;99.90
34135;DHT22;20410;55.578;12.968;2022-09-09T14:05:20;22.30;99.90
34135;DHT22;20410;55.578;12.968;2022-09-09T14:07:48;22.30;99.90
34135;DHT22;20410;55.578;12.968;2022-09-09T14:10:14;22.30;99.90
34135;DHT22;20410;55.578;12.968;2022-09-09T14:12:40;22.20;99.90
34135;DHT22;20410;55.578;12.968;2022-09-09T14:15:07;22.10;99.90
34135;DHT22;20410;55.578;12.968;2022-09-09T14:17:33;22.10;99.90
34135;DHT22;20410;55.578;12.968;2022-09-09T14:20:04;22.00;99.90
34135;DHT22;20410;55.578;12.968;2022-09-09T14:22:35;21.90;99.90
34135;DHT22;20410;55.578;12.968;2022-09-09T14:25:01;21.80;99.90
34135;DHT22;20410;55.578;12.968;2022-09-09T14:27:27;21.70;99.90
34135;DHT22;20410;55.578;12.968;2022-09-09T14:29:54;21.60;99.90
34135;DHT22;20410;55.578;12.968;2022-09-09T14:32:19;21.50;99.90
34135;DHT22;20410;55.578;12.968;2022-09-09T14:34:45;21.40;99.90
34135;DHT22;20410;55.578;12.968;2022-09-09T14:37:11;21.50;99.90
34135;DHT22;20410;55.578;12.968;2022-09-09T14:39:36;21.40;99.90
34135;DHT22;20410;55.578;12.968;2022-09-09T14:42:02;21.30;99.90
34135;DHT22;20410;55.578;12.968;2022-09-09T14:44:28;21.30;99.90
34135;DHT22;20410;55.578;12.968;2022-09-09T14:46:54;21.30;99.90
34135;DHT22;20410;55.578;12.968;2022-09-09T14:49:20;21.20;99.90
34135;DHT22;20410;55.578;12.968;2022-09-09T14:51:45;21.20;99.90
34135;DHT22;20410;55.578;12.968;2022-09-09T14:54:11;21.10;99.90
34135;DHT22;20410;55.578;12.968;2022-09-09T14:56:37;21.20;99.90
34135;DHT22;20410;55.578;12.968;2022-09-09T14:59:03;21.20;99.90
34135;DHT22;20410;55.578;12.968;2022-09-09T15:01:30;21.20;99.90
34135;DHT22;20410;55.578;12.968;2022-09-09T15:04:02;21.20;99.90
34135;DHT22;20410;55.578;12.968;2022-09-09T15:06:30;21.30;99.90
34135;DHT22;20410;55.578;12.968;2022-09-09T15:08:57;21.30;99.90
34135;DHT22;20410;55.578;12.968;2022-09-09T15:11:32;21.30;99.90
34135;DHT22;20410;55.578;12.968;2022-09-09T15:13:58;21.30;99.90
34135;DHT22;20410;55.578;12.968;2022-09-09T15:16:27;21.30;99.90
34135;DHT22;20410;55.578;12.968;2022-09-09T15:18:56;21.30;99.90
34135;DHT22;20410;55.578;12.968;2022-09-09T15:21:25;21.40;99.90
34135;DHT22;20410;55.578;12.968;2022-09-09T15:23:51;21.40;99.90
34135;DHT22;20410;55.578;12.968;2022-09-09T15:26:18;21.30;99.90
34135;DHT22;20410;55.578;12.968;2022-09-09T15:28:45;21.20;99.90
34135;DHT22;20410;55.578;12.968;2022-09-09T15:31:14;21.00;99.90
34135;DHT22;20410;55.578;12.968;2022-09-09T15:33:47;20.90;99.90
34135;DHT22;20410;55.578;12.968;2022-09-09T15:38:43;20.80;99.90
34135;DHT22;20410;55.578;12.968;2022-09-09T15:41:10;20.70;99.90
34135;DHT22;20410;55.578;12.968;2022-09-09T15:43:36;20.70;99.90
34135;DHT22;20410;55.578;12.968;2022-09-09T15:48:51;20.80;99.90
34135;DHT22;20410;55.578;12.968;2022-09-09T15:51:17;20.80;99.90
34135;DHT22;20410;55.578;12.968;2022-09-09T15:53:44;20.80;99.90
34135;DHT22;20410;55.578;12.968;2022-09-09T15:56:10;20.80;99.90
34135;DHT22;20410;55.578;12.968;2022-09-09T15:58:36;20.70;99.90
34135;DHT22;20410;55.578;12.968;2022-09-09T16:01:06;20.70;99.90
34135;DHT22;20410;55.578;12.968;2022-09-09T16:03:37;20.60;99.90
34135;DHT22;20410;55.578;12.968;2022-09-09T16:06:04;20.60;99.90
34135;DHT22;20410;55.578;12.968;2022-09-09T16:08:41;20.60;99.90
34135;DHT22;20410;55.578;12.968;2022-09-09T16:13:38;20.50;99.90
34135;DHT22;20410;55.578;12.968;2022-09-09T16:16:05;20.50;99.90
34135;DHT22;20410;55.578;12.968;2022-09-09T16:18:36;20.40;99.90
34135;DHT22;20410;55.578;12.968;2022-09-09T16:21:03;20.30;99.90
34135;DHT22;20410;55.578;12.968;2022-09-09T16:23:30;20.20;99.90
34135;DHT22;20410;55.578;12.968;2022-09-09T16:25:56;20.20;99.90
34135;DHT22;20410;55.578;12.968;2022-09-09T16:28:22;20.20;99.90
34135;DHT22;20410;55.578;12.968;2022-09-09T16:30:48;20.20;99.90
34135;DHT22;20410;55.578;12.968;2022-09-09T16:33:14;20.10;99.90
34135;DHT22;20410;55.578;12.968;2022-09-09T16:35:42;20.00;99.90
34135;DHT22;20410;55.578;12.968;2022-09-09T16:38:08;20.00;99.90
34135;DHT22;20410;55.578;12.968;2022-09-09T16:40:37;20.00;99.90
34135;DHT22;20410;55.578;12.968;2022-09-09T16:43:04;19.80;99.90
34135;DHT22;20410;55.578;12.968;2022-09-09T16:45:31;19.60;99.90
34135;DHT22;20410;55.578;12.968;2022-09-09T16:47:58;19.50;99.90
34135;DHT22;20410;55.578;12.968;2022-09-09T16:50:24;19.40;99.90
34135;DHT22;20410;55.578;12.968;2022-09-09T16:52:51;19.40;99.90
34135;DHT22;20410;55.578;12.968;2022-09-09T16:55:17;19.30;99.90
34135;DHT22;20410;55.578;12.968;2022-09-09T16:57:46;19.20;99.90
34135;DHT22;20410;55.578;12.968;2022-09-09T17:00:15;19.20;99.90
34135;DHT22;20410;55.578;12.968;2022-09-09T17:02:42;19.20;99.90
34135;DHT22;20410;55.578;12.968;2022-09-09T17:05:08;19.10;99.90
34135;DHT22;20410;55.578;12.968;2022-09-09T17:07:34;19.00;99.90
34135;DHT22;20410;55.578;12.968;2022-09-09T17:10:01;19.00;99.90
34135;DHT22;20410;55.578;12.968;2022-09-09T17:12:27;19.00;99.90
34135;DHT22;20410;55.578;12.968;2022-09-09T17:14:52;19.00;99.90
34135;DHT22;20410;55.578;12.968;2022-09-09T17:17:18;19.00;99.90
34135;DHT22;20410;55.578;12.968;2022-09-09T17:19:44;18.90;99.90
34135;DHT22;20410;55.578;12.968;2022-09-09T17:22:09;18.90;99.90
34135;DHT22;20410;55.578;12.968;2022-09-09T17:24:35;18.80;99.90
34135;DHT22;20410;55.578;12.968;2022-09-09T17:27:03;18.80;99.90
34135;DHT22;20410;55.578;12.968;2022-09-09T17:29:29;18.70;99.90
34135;DHT22;20410;55.578;12.968;2022-09-09T17:31:54;18.70;99.90
34135;DHT22;20410;55.578;12.968;2022-09-09T17:34:20;18.70;99.90
34135;DHT22;20410;55.578;12.968;2022-09-09T17:36:46;18.70;99.90
34135;DHT22;20410;55.578;12.968;2022-09-09T17:39:12;18.80;99.90